createdAt,value
2018-09-24T00:02:03.743Z,12.60
2018-09-24T00:04:31.143Z,12.60
2018-09-24T00:06:58.585Z,12.60
2018-09-24T00:09:26.030Z,12.60
2018-09-24T00:11:53.515Z,12.60
2018-09-24T00:14:20.976Z,12.60
2018-09-24T00:16:48.433Z,12.60
2018-09-24T00:19:15.857Z,12.60
2018-09-24T00:21:43.252Z,12.60
2018-09-24T00:24:10.702Z,12.60
2018-09-24T00:26:38.083Z,12.50
2018-09-24T00:29:05.634Z,12.60
2018-09-24T00:31:33.043Z,12.60
2018-09-24T00:34:00.448Z,12.60
2018-09-24T00:36:27.939Z,12.60
2018-09-24T00:38:56.092Z,12.60
2018-09-24T00:41:23.569Z,12.60
2018-09-24T00:43:51.182Z,12.60
2018-09-24T00:46:19.191Z,12.60
2018-09-24T00:48:46.783Z,12.60
2018-09-24T00:51:14.267Z,12.60
2018-09-24T00:53:41.733Z,12.60
2018-09-24T00:56:09.158Z,12.60
2018-09-24T00:58:36.613Z,12.50
2018-09-24T01:01:04.083Z,12.50
2018-09-24T01:03:31.482Z,12.50
2018-09-24T01:05:58.859Z,12.50
2018-09-24T01:08:26.303Z,12.40
2018-09-24T01:10:54.162Z,12.40
2018-09-24T01:13:21.686Z,12.40
2018-09-24T01:15:49.126Z,12.40
2018-09-24T01:18:17.655Z,12.40
2018-09-24T01:20:45.056Z,12.30
2018-09-24T01:23:12.500Z,12.50
2018-09-24T01:25:39.893Z,12.30
2018-09-24T01:28:07.349Z,12.30
2018-09-24T01:30:34.816Z,12.30
2018-09-24T01:33:02.277Z,12.30
2018-09-24T01:35:29.838Z,12.30
2018-09-24T01:37:57.357Z,12.30
2018-09-24T01:40:24.966Z,12.30
2018-09-24T01:42:52.383Z,12.30
2018-09-24T01:45:20.235Z,12.30
2018-09-24T01:47:47.666Z,12.30
2018-09-24T01:50:15.034Z,12.30
2018-09-24T01:52:42.501Z,12.30
2018-09-24T01:55:10.010Z,12.30
2018-09-24T01:57:37.450Z,12.20
2018-09-24T02:00:04.954Z,12.30
2018-09-24T02:02:32.422Z,12.20
2018-09-24T02:04:59.867Z,12.20
2018-09-24T02:07:27.299Z,12.20
2018-09-24T02:09:54.914Z,12.20
2018-09-24T02:12:22.330Z,12.20
2018-09-24T02:14:49.746Z,12.20
2018-09-24T02:17:19.887Z,12.10
2018-09-24T02:19:48.251Z,12.10
2018-09-24T02:22:25.175Z,12.10
2018-09-24T02:24:53.236Z,12.10
2018-09-24T02:27:20.699Z,12.10
2018-09-24T02:29:48.085Z,12.10
2018-09-24T02:32:15.489Z,12.10
2018-09-24T02:34:42.980Z,12.10
2018-09-24T02:37:12.702Z,12.10
2018-09-24T02:39:40.314Z,12.10
2018-09-24T02:42:07.799Z,12.10
2018-09-24T02:44:35.199Z,12.10
2018-09-24T02:47:02.632Z,12.10
2018-09-24T02:49:30.107Z,12.10
2018-09-24T02:52:01.351Z,12.10
2018-09-24T02:54:29.210Z,12.10
2018-09-24T02:56:57.207Z,12.10
2018-09-24T02:59:24.613Z,12.10
2018-09-24T03:01:52.002Z,12.00
2018-09-24T03:04:19.480Z,12.10
2018-09-24T03:06:46.890Z,12.50
2018-09-24T03:09:15.513Z,11.90
2018-09-24T03:11:43.382Z,12.00
2018-09-24T03:14:10.799Z,12.20
2018-09-24T03:16:38.427Z,12.00
2018-09-24T03:19:05.867Z,12.00
2018-09-24T03:21:33.269Z,12.00
2018-09-24T03:24:00.702Z,11.90
2018-09-24T03:26:28.292Z,12.10
2018-09-24T03:28:56.273Z,11.90
2018-09-24T03:31:24.067Z,11.90
2018-09-24T03:33:51.476Z,11.90
2018-09-24T03:36:18.937Z,11.90
2018-09-24T03:38:46.326Z,11.90
2018-09-24T03:41:13.725Z,11.90
2018-09-24T03:43:41.118Z,11.80
2018-09-24T03:46:08.628Z,11.80
2018-09-24T03:48:36.155Z,11.80
2018-09-24T03:51:03.574Z,11.80
2018-09-24T03:53:31.198Z,11.80
2018-09-24T03:55:58.604Z,11.80
2018-09-24T03:58:25.998Z,11.80
2018-09-24T04:00:53.603Z,11.80
2018-09-24T04:03:21.031Z,11.80
2018-09-24T04:05:54.167Z,11.80
2018-09-24T04:08:27.248Z,11.80
2018-09-24T04:11:00.506Z,11.80
2018-09-24T04:13:33.744Z,11.90
2018-09-24T04:16:06.941Z,11.80
2018-09-24T04:18:40.218Z,11.80
2018-09-24T04:21:13.481Z,11.80
2018-09-24T04:23:46.662Z,11.80
2018-09-24T04:26:19.736Z,11.80
2018-09-24T04:28:53.687Z,11.80
2018-09-24T04:31:26.912Z,11.80
2018-09-24T04:34:01.553Z,11.80
2018-09-24T04:36:34.767Z,11.70
2018-09-24T04:39:08.073Z,11.70
2018-09-24T04:41:41.254Z,11.70
2018-09-24T04:44:14.470Z,11.70
2018-09-24T04:46:47.664Z,11.70
2018-09-24T04:49:20.953Z,11.70
2018-09-24T04:51:54.213Z,11.70
2018-09-24T04:54:27.631Z,11.70
2018-09-24T04:57:00.692Z,11.70
2018-09-24T04:59:34.037Z,11.90
2018-09-24T05:02:07.456Z,11.80
2018-09-24T05:04:40.711Z,11.80
2018-09-24T05:07:13.765Z,11.80
2018-09-24T05:09:46.979Z,11.70
2018-09-24T05:12:20.253Z,11.80
2018-09-24T05:14:53.926Z,11.70
2018-09-24T05:17:27.159Z,11.80
2018-09-24T05:20:00.411Z,11.80
2018-09-24T05:22:33.559Z,11.60
2018-09-24T05:25:06.762Z,11.80
2018-09-24T05:27:40.007Z,11.80
2018-09-24T05:30:13.455Z,11.80
2018-09-24T05:32:46.703Z,11.70
2018-09-24T05:35:19.928Z,11.80
2018-09-24T05:37:53.113Z,11.70
2018-09-24T05:40:27.032Z,11.70
2018-09-24T05:45:53.328Z,11.70
2018-09-24T05:48:26.583Z,11.70
2018-09-24T05:50:59.621Z,11.70
2018-09-24T05:53:32.874Z,11.70
2018-09-24T05:56:06.171Z,11.60
2018-09-24T05:58:39.330Z,11.60
2018-09-24T06:01:12.651Z,11.60
2018-09-24T06:03:45.854Z,11.60
2018-09-24T06:06:18.928Z,11.60
2018-09-24T06:08:52.063Z,11.60
2018-09-24T06:11:25.424Z,11.60
2018-09-24T06:13:58.565Z,11.70
2018-09-24T06:16:31.671Z,11.70
2018-09-24T06:19:04.848Z,11.70
2018-09-24T06:21:38.263Z,11.80
2018-09-24T06:24:11.766Z,11.70
2018-09-24T06:26:45.526Z,11.70
2018-09-24T06:29:18.703Z,11.70
2018-09-24T06:31:52.017Z,11.70
2018-09-24T06:34:25.394Z,11.70
2018-09-24T06:36:58.436Z,11.80
2018-09-24T06:39:31.588Z,11.80
2018-09-24T06:42:04.771Z,11.80
2018-09-24T06:44:38.015Z,11.80
2018-09-24T06:47:11.344Z,11.80
2018-09-24T06:49:44.638Z,11.80
2018-09-24T06:52:17.777Z,11.80
2018-09-24T06:54:51.016Z,11.90
2018-09-24T06:57:24.105Z,11.80
2018-09-24T06:59:57.953Z,11.90
2018-09-24T07:02:31.155Z,11.90
2018-09-24T07:05:04.312Z,11.90
2018-09-24T07:07:37.712Z,12.00
2018-09-24T07:10:11.143Z,12.00
2018-09-24T07:12:44.090Z,12.00
2018-09-24T07:15:17.358Z,12.00
2018-09-24T07:17:50.334Z,12.00
2018-09-24T07:20:23.351Z,12.00
2018-09-24T07:22:56.718Z,12.10
2018-09-24T07:25:29.758Z,12.00
2018-09-24T07:28:02.889Z,12.10
2018-09-24T07:30:36.273Z,12.10
2018-09-24T07:33:09.453Z,12.10
2018-09-24T07:35:42.677Z,12.10
2018-09-24T07:38:15.966Z,12.10
2018-09-24T07:40:49.145Z,12.10
2018-09-24T07:43:22.495Z,12.10
2018-09-24T07:45:55.706Z,12.10
2018-09-24T07:48:28.911Z,12.10
2018-09-24T07:51:02.189Z,12.10
2018-09-24T07:53:35.217Z,12.20
2018-09-24T07:56:08.529Z,12.20
2018-09-24T07:58:41.770Z,12.20
2018-09-24T08:01:15.045Z,12.20
2018-09-24T08:03:49.475Z,12.20
2018-09-24T08:06:22.794Z,12.20
2018-09-24T08:08:56.180Z,12.10
2018-09-24T08:11:29.773Z,12.10
2018-09-24T08:14:02.946Z,12.20
2018-09-24T08:16:36.189Z,12.30
2018-09-24T08:19:09.554Z,12.20
2018-09-24T08:21:42.781Z,12.30
2018-09-24T08:24:15.994Z,12.40
2018-09-24T08:26:49.907Z,12.40
2018-09-24T08:29:23.135Z,12.40
2018-09-24T08:31:56.198Z,12.40
2018-09-24T08:34:29.257Z,12.50
2018-09-24T08:37:02.348Z,12.50
2018-09-24T08:39:36.412Z,12.50
2018-09-24T08:42:09.807Z,12.50
2018-09-24T08:44:43.162Z,12.50
2018-09-24T08:47:16.484Z,12.50
2018-09-24T08:49:49.929Z,12.60
2018-09-24T08:52:22.995Z,12.60
2018-09-24T08:54:56.199Z,12.70
2018-09-24T08:57:29.397Z,12.60
2018-09-24T09:00:03.430Z,12.70
2018-09-24T09:02:37.676Z,12.60
2018-09-24T09:05:11.206Z,12.60
2018-09-24T09:07:44.435Z,12.60
2018-09-24T09:10:17.886Z,12.70
2018-09-24T09:12:52.911Z,12.70
2018-09-24T09:15:26.278Z,12.70
2018-09-24T09:17:59.383Z,12.70
2018-09-24T09:20:32.683Z,12.80
2018-09-24T09:23:05.706Z,12.80
2018-09-24T09:25:38.897Z,12.80
2018-09-24T09:28:12.115Z,12.80
2018-09-24T09:30:45.247Z,12.90
2018-09-24T09:33:20.682Z,12.90
2018-09-24T09:35:53.918Z,12.90
2018-09-24T09:38:27.278Z,12.90
2018-09-24T09:41:00.443Z,13.00
2018-09-24T09:43:33.799Z,13.00
2018-09-24T09:46:07.202Z,13.00
2018-09-24T09:48:40.263Z,13.10
2018-09-24T09:51:13.634Z,13.10
2018-09-24T09:53:46.808Z,13.10
2018-09-24T09:56:20.110Z,13.10
2018-09-24T09:58:53.411Z,13.20
2018-09-24T10:01:26.689Z,13.20
2018-09-24T10:04:00.221Z,13.20
2018-09-24T10:06:33.603Z,13.20
2018-09-24T10:09:06.911Z,13.50
2018-09-24T10:11:40.073Z,13.30
2018-09-24T10:14:13.347Z,13.50
2018-09-24T10:16:46.691Z,13.30
2018-09-24T10:19:19.946Z,13.40
2018-09-24T10:21:53.038Z,13.40
2018-09-24T10:24:26.633Z,13.50
2018-09-24T10:26:59.790Z,13.50
2018-09-24T10:29:33.002Z,13.60
2018-09-24T10:32:06.301Z,13.50
2018-09-24T10:34:39.675Z,13.50
2018-09-24T10:37:13.232Z,13.50
2018-09-24T10:39:46.580Z,13.40
2018-09-24T10:42:19.748Z,13.50
2018-09-24T10:44:52.901Z,13.50
2018-09-24T10:47:26.327Z,13.50
2018-09-24T10:49:59.726Z,13.40
2018-09-24T10:52:34.693Z,13.50
2018-09-24T10:55:07.908Z,13.50
2018-09-24T10:57:41.225Z,13.60
2018-09-24T11:00:14.555Z,13.60
2018-09-24T11:02:47.687Z,13.60
2018-09-24T11:05:20.963Z,13.60
2018-09-24T11:07:54.355Z,13.70
2018-09-24T11:10:27.654Z,13.70
2018-09-24T11:13:00.946Z,13.70
2018-09-24T11:15:34.763Z,13.70
2018-09-24T11:18:14.205Z,13.70
2018-09-24T11:20:47.862Z,13.70
2018-09-24T11:23:21.127Z,13.80
2018-09-24T11:25:54.405Z,13.80
2018-09-24T11:28:27.649Z,13.70
2018-09-24T11:31:01.042Z,13.70
2018-09-24T11:33:34.402Z,13.70
2018-09-24T11:36:09.361Z,13.80
2018-09-24T11:38:42.560Z,13.80
2018-09-24T11:41:16.040Z,13.90
2018-09-24T11:43:49.367Z,13.90
2018-09-24T11:46:22.645Z,14.20
2018-09-24T11:48:55.917Z,14.00
2018-09-24T11:51:29.236Z,14.00
2018-09-24T11:54:02.334Z,14.10
2018-09-24T11:56:35.674Z,14.10
2018-09-24T11:59:08.922Z,14.10
2018-09-24T12:01:42.409Z,14.20
2018-09-24T12:04:15.763Z,14.20
2018-09-24T12:06:49.007Z,14.30
2018-09-24T12:09:22.120Z,14.30
2018-09-24T12:11:55.318Z,14.30
2018-09-24T12:14:28.435Z,14.30
2018-09-24T12:17:01.680Z,14.20
2018-09-24T12:19:35.066Z,14.10
2018-09-24T12:22:08.263Z,14.00
2018-09-24T12:24:42.228Z,13.80
2018-09-24T12:27:15.959Z,13.70
2018-09-24T12:29:49.699Z,13.70
2018-09-24T12:32:23.195Z,13.70
2018-09-24T12:34:56.423Z,13.60
2018-09-24T12:37:29.788Z,13.60
2018-09-24T12:40:03.095Z,13.50
2018-09-24T12:42:36.447Z,13.50
2018-09-24T12:45:09.902Z,13.50
2018-09-24T12:47:42.979Z,13.40
2018-09-24T12:50:16.501Z,13.40
2018-09-24T12:52:49.852Z,13.30
2018-09-24T12:55:23.090Z,13.30
2018-09-24T12:57:56.329Z,13.30
2018-09-24T13:00:29.941Z,13.40
2018-09-24T13:03:03.099Z,13.40
2018-09-24T13:05:36.143Z,13.50
2018-09-24T13:08:09.478Z,13.50
2018-09-24T13:10:42.739Z,13.60
2018-09-24T13:13:16.120Z,13.60
2018-09-24T13:15:50.426Z,13.70
2018-09-24T13:18:23.847Z,13.50
2018-09-24T13:20:57.558Z,13.80
2018-09-24T13:23:30.742Z,13.80
2018-09-24T13:26:03.783Z,13.90
2018-09-24T13:28:36.948Z,13.90
2018-09-24T13:31:10.230Z,13.90
2018-09-24T13:33:44.202Z,14.10
2018-09-24T13:36:18.340Z,14.10
2018-09-24T13:38:51.610Z,14.20
2018-09-24T13:41:25.029Z,14.20
2018-09-24T13:43:58.134Z,14.30
2018-09-24T13:46:31.491Z,14.30
2018-09-24T13:49:04.715Z,14.30
2018-09-24T13:51:37.993Z,14.60
2018-09-24T13:54:11.259Z,14.40
2018-09-24T13:56:44.693Z,14.40
2018-09-24T13:59:18.199Z,14.50
2018-09-24T14:01:51.517Z,14.50
2018-09-24T14:04:24.705Z,14.50
2018-09-24T14:06:58.287Z,14.50
2018-09-24T14:09:31.898Z,14.50
2018-09-24T14:12:05.085Z,14.50
2018-09-24T14:14:38.197Z,14.50
2018-09-24T14:17:11.569Z,14.10
2018-09-24T14:19:44.794Z,13.80
2018-09-24T14:22:18.278Z,13.80
2018-09-24T14:24:51.790Z,13.80
2018-09-24T14:27:25.160Z,13.50
2018-09-24T14:29:58.418Z,13.90
2018-09-24T14:32:31.949Z,13.70
2018-09-24T14:35:05.208Z,13.90
2018-09-24T14:37:38.491Z,14.00
2018-09-24T14:40:11.759Z,14.00
2018-09-24T14:42:45.168Z,14.00
2018-09-24T14:45:18.507Z,14.00
2018-09-24T14:47:51.597Z,14.00
2018-09-24T14:50:24.738Z,14.00
2018-09-24T14:52:57.781Z,14.00
2018-09-24T14:55:30.924Z,14.00
2018-09-24T14:58:04.208Z,14.00
2018-09-24T15:00:37.424Z,14.10
2018-09-24T15:03:10.682Z,14.10
2018-09-24T15:05:43.882Z,14.20
2018-09-24T15:08:17.073Z,14.20
2018-09-24T15:10:50.116Z,14.20
2018-09-24T15:13:23.437Z,14.30
2018-09-24T15:15:56.760Z,14.30
2018-09-24T15:18:29.959Z,14.40
2018-09-24T15:21:03.224Z,14.40
2018-09-24T15:23:36.426Z,14.40
2018-09-24T15:26:09.679Z,14.40
2018-09-24T15:28:42.931Z,14.40
2018-09-24T15:31:15.970Z,14.40
2018-09-24T15:33:50.027Z,14.40
2018-09-24T15:36:23.631Z,14.40
2018-09-24T15:38:57.142Z,14.40
2018-09-24T15:41:30.454Z,14.40
2018-09-24T15:44:03.718Z,14.40
2018-09-24T15:46:36.970Z,14.40
2018-09-24T15:49:10.154Z,14.40
2018-09-24T15:51:43.615Z,14.40
2018-09-24T15:54:16.904Z,14.40
2018-09-24T15:56:50.471Z,14.40
2018-09-24T15:59:23.672Z,14.30
2018-09-24T16:01:56.949Z,14.30
2018-09-24T16:04:30.198Z,14.40
2018-09-24T16:07:03.374Z,14.40
2018-09-24T16:09:36.848Z,14.50
2018-09-24T16:12:10.159Z,14.50
2018-09-24T16:14:43.758Z,14.50
2018-09-24T16:17:16.928Z,14.60
2018-09-24T16:19:50.119Z,14.60
2018-09-24T16:22:23.412Z,14.70
2018-09-24T16:24:56.673Z,14.70
2018-09-24T16:27:30.128Z,14.80
2018-09-24T16:30:03.422Z,14.80
2018-09-24T16:32:36.774Z,14.80
2018-09-24T16:35:10.019Z,14.80
2018-09-24T16:37:43.188Z,14.80
2018-09-24T16:40:16.307Z,14.80
2018-09-24T16:42:49.427Z,14.80
2018-09-24T16:45:22.637Z,14.80
2018-09-24T16:47:56.162Z,14.80
2018-09-24T16:50:29.555Z,14.70
2018-09-24T16:53:02.948Z,14.30
2018-09-24T16:55:36.967Z,14.70
2018-09-24T16:58:10.054Z,14.60
2018-09-24T17:00:43.273Z,14.50
2018-09-24T17:03:16.530Z,14.50
2018-09-24T17:05:49.653Z,14.40
2018-09-24T17:08:22.935Z,14.40
2018-09-24T17:10:56.415Z,14.40
2018-09-24T17:13:29.628Z,14.30
2018-09-24T17:16:02.863Z,14.30
2018-09-24T17:18:36.241Z,14.20
2018-09-24T17:21:10.581Z,14.20
2018-09-24T17:23:43.998Z,14.20
2018-09-24T17:26:17.450Z,14.10
2018-09-24T17:28:50.719Z,14.10
2018-09-24T17:31:23.967Z,14.10
2018-09-24T17:33:57.266Z,14.10
2018-09-24T17:36:30.574Z,14.20
2018-09-24T17:39:03.775Z,14.20
2018-09-24T17:41:36.986Z,14.20
2018-09-24T17:44:11.521Z,14.20
2018-09-24T17:46:45.022Z,14.10
2018-09-24T17:49:18.382Z,14.20
2018-09-24T17:51:51.655Z,13.80
2018-09-24T17:54:24.877Z,14.20
2018-09-24T17:56:58.067Z,14.20
2018-09-24T17:59:31.507Z,14.40
2018-09-24T18:02:04.665Z,14.20
2018-09-24T18:04:37.968Z,14.10
2018-09-24T18:07:11.251Z,14.10
2018-09-24T18:09:44.662Z,14.00
2018-09-24T18:12:18.006Z,14.00
2018-09-24T18:14:51.656Z,14.00
2018-09-24T18:17:25.110Z,13.90
2018-09-24T18:19:58.387Z,13.80
2018-09-24T18:22:31.842Z,13.70
2018-09-24T18:25:05.066Z,13.70
2018-09-24T18:27:39.022Z,13.60
2018-09-24T18:30:12.249Z,13.60
2018-09-24T18:32:45.483Z,13.60
2018-09-24T18:35:18.743Z,13.60
2018-09-24T18:37:52.042Z,13.60
2018-09-24T18:40:25.312Z,13.60
2018-09-24T18:42:58.358Z,13.60
2018-09-24T18:45:31.959Z,13.70
2018-09-24T18:48:05.935Z,13.60
2018-09-24T18:50:39.776Z,13.60
2018-09-24T18:53:12.926Z,13.60
2018-09-24T18:55:46.426Z,13.60
2018-09-24T18:58:19.822Z,13.60
2018-09-24T19:00:53.144Z,13.60
2018-09-24T19:03:26.374Z,13.60
2018-09-24T19:05:59.590Z,13.60
2018-09-24T19:08:33.335Z,13.50
2018-09-24T19:11:06.708Z,13.50
2018-09-24T19:13:40.265Z,13.60
2018-09-24T19:16:13.747Z,13.60
2018-09-24T19:18:46.957Z,13.60
2018-09-24T19:21:20.271Z,13.60
2018-09-24T19:23:53.711Z,13.60
2018-09-24T19:26:27.122Z,13.60
2018-09-24T19:29:00.998Z,13.60
2018-09-24T19:31:35.401Z,13.60
2018-09-24T19:34:08.563Z,13.70
2018-09-24T19:36:42.420Z,13.70
2018-09-24T19:39:15.954Z,13.70
2018-09-24T19:41:49.891Z,13.70
2018-09-24T19:44:23.192Z,13.90
2018-09-24T19:46:56.502Z,13.70
2018-09-24T19:49:29.933Z,13.80
2018-09-24T19:52:03.604Z,13.80
2018-09-24T19:54:37.105Z,13.70
2018-09-24T19:57:11.232Z,14.00
2018-09-24T19:59:44.721Z,13.80
2018-09-24T20:02:18.226Z,13.80
2018-09-24T20:04:51.866Z,13.80
2018-09-24T20:07:25.079Z,13.80
2018-09-24T20:09:58.383Z,13.80
2018-09-24T20:12:31.640Z,13.80
2018-09-24T20:15:05.199Z,13.70
2018-09-24T20:17:39.623Z,13.70
2018-09-24T20:20:13.152Z,13.70
2018-09-24T20:22:46.351Z,13.70
2018-09-24T20:25:19.854Z,13.70
2018-09-24T20:27:53.065Z,13.70
2018-09-24T20:30:26.374Z,13.70
2018-09-24T20:32:59.415Z,13.70
2018-09-24T20:35:33.184Z,13.70
2018-09-24T20:38:06.326Z,13.70
2018-09-24T20:40:39.630Z,13.60
2018-09-24T20:43:12.941Z,13.60
2018-09-24T20:45:46.243Z,13.70
2018-09-24T20:48:19.549Z,13.70
2018-09-24T20:50:52.929Z,13.60
2018-09-24T20:53:26.278Z,13.60
2018-09-24T20:56:00.147Z,13.60
2018-09-24T20:58:33.480Z,13.60
2018-09-24T21:01:06.619Z,13.60
2018-09-24T21:03:39.869Z,13.60
2018-09-24T21:06:13.285Z,13.60
2018-09-24T21:08:46.299Z,13.60
2018-09-24T21:11:19.542Z,13.60
2018-09-24T21:13:52.741Z,13.60
2018-09-24T21:16:25.958Z,13.60
2018-09-24T21:18:59.234Z,13.60
2018-09-24T21:21:33.403Z,13.60
2018-09-24T21:24:06.718Z,13.60
2018-09-24T21:26:41.435Z,13.60
2018-09-24T21:29:14.792Z,13.50
2018-09-24T21:31:47.969Z,13.50
2018-09-24T21:34:21.501Z,13.50
2018-09-24T21:36:54.750Z,13.50
2018-09-24T21:39:27.898Z,13.50
2018-09-24T21:42:01.055Z,13.50
2018-09-24T21:44:34.335Z,13.50
2018-09-24T21:47:07.645Z,13.40
2018-09-24T21:49:40.902Z,13.40
2018-09-24T21:52:14.068Z,13.40
2018-09-24T21:54:47.289Z,13.40
2018-09-24T21:57:20.329Z,13.40
2018-09-24T21:59:53.487Z,13.40
2018-09-24T22:02:26.655Z,13.40
2018-09-24T22:04:59.766Z,13.40
2018-09-24T22:07:33.200Z,13.40
2018-09-24T22:10:06.302Z,13.40
2018-09-24T22:12:39.538Z,13.30
2018-09-24T22:15:12.723Z,13.40
2018-09-24T22:17:46.022Z,13.30
2018-09-24T22:20:19.146Z,13.30
2018-09-24T22:22:52.530Z,13.30
2018-09-24T22:25:25.618Z,13.30
2018-09-24T22:27:58.839Z,13.30
2018-09-24T22:30:32.184Z,13.30
2018-09-24T22:33:05.214Z,13.30
2018-09-24T22:35:38.429Z,13.30
2018-09-24T22:38:11.682Z,13.30
2018-09-24T22:40:44.966Z,13.20
2018-09-24T22:43:17.978Z,13.20
2018-09-24T22:45:51.328Z,13.20
2018-09-24T22:48:24.598Z,13.20
2018-09-24T22:50:58.031Z,13.20
2018-09-24T22:53:31.622Z,13.20
2018-09-24T22:56:04.952Z,13.10
2018-09-24T22:58:38.246Z,13.10
2018-09-24T23:01:11.334Z,13.10
2018-09-24T23:03:44.548Z,13.10
2018-09-24T23:06:19.158Z,13.10
2018-09-24T23:08:52.218Z,13.10
2018-09-24T23:11:25.512Z,13.10
2018-09-24T23:13:58.618Z,13.10
2018-09-24T23:16:31.794Z,13.10
2018-09-24T23:19:05.169Z,13.10
2018-09-24T23:21:38.183Z,13.10
2018-09-24T23:24:11.802Z,13.00
2018-09-24T23:26:45.260Z,13.00
2018-09-24T23:29:18.450Z,13.00
2018-09-24T23:31:51.675Z,13.00
2018-09-24T23:34:27.886Z,13.00
2018-09-24T23:37:01.014Z,13.00
2018-09-24T23:39:34.311Z,12.90
2018-09-24T23:42:07.657Z,12.90
2018-09-24T23:44:40.826Z,12.90
2018-09-24T23:47:13.901Z,12.90
2018-09-24T23:49:47.167Z,12.90
2018-09-24T23:52:20.646Z,12.90
2018-09-24T23:54:53.810Z,12.90
2018-09-24T23:57:29.175Z,12.90
